createdAt,value
2023-04-19T00:00:02.603Z,9.32
2023-04-19T00:02:31.979Z,9.32
2023-04-19T00:05:00.831Z,9.37
2023-04-19T00:07:29.462Z,9.27
2023-04-19T00:09:58.384Z,9.23
2023-04-19T00:12:28.570Z,9.23
2023-04-19T00:14:59.283Z,9.21
2023-04-19T00:17:28.115Z,9.19
2023-04-19T00:19:57.111Z,9.16
2023-04-19T00:22:25.539Z,9.08
2023-04-19T00:24:54.156Z,9.10
2023-04-19T00:27:22.731Z,9.02
2023-04-19T00:29:52.778Z,9.03
2023-04-19T00:32:21.294Z,8.99
2023-04-19T00:34:50.588Z,8.95
2023-04-19T00:37:19.116Z,8.98
2023-04-19T00:39:47.837Z,8.91
2023-04-19T00:42:16.271Z,8.89
2023-04-19T00:44:45.187Z,8.84
2023-04-19T00:47:15.981Z,8.84
2023-04-19T00:49:44.988Z,8.78
2023-04-19T00:52:13.654Z,8.75
2023-04-19T00:54:45.237Z,8.72
2023-04-19T00:57:14.124Z,8.70
2023-04-19T00:59:43.433Z,8.69
2023-04-19T01:02:11.986Z,8.62
2023-04-19T01:04:42.747Z,8.64
2023-04-19T01:07:11.373Z,8.61
2023-04-19T01:09:42.375Z,8.57
2023-04-19T01:12:10.762Z,8.62
2023-04-19T01:14:39.468Z,8.62
2023-04-19T01:17:09.423Z,8.60
2023-04-19T01:19:40.174Z,8.53
2023-04-19T01:22:11.512Z,8.48
2023-04-19T01:24:42.770Z,8.47
2023-04-19T01:27:11.527Z,8.45
2023-04-19T01:29:39.850Z,8.40
2023-04-19T01:32:08.397Z,8.43
2023-04-19T01:34:36.912Z,8.42
2023-04-19T01:37:05.362Z,8.32
2023-04-19T01:39:34.150Z,8.36
2023-04-19T01:42:04.610Z,8.34
2023-04-19T01:44:33.105Z,8.33
2023-04-19T01:47:01.726Z,8.30
2023-04-19T01:49:30.203Z,8.26
2023-04-19T01:51:58.811Z,8.18
2023-04-19T01:54:27.588Z,8.21
2023-04-19T01:56:56.279Z,8.17
2023-04-19T01:59:26.386Z,8.11
2023-04-19T02:01:55.929Z,8.10
2023-04-19T02:04:24.675Z,8.07
2023-04-19T02:06:53.020Z,8.09
2023-04-19T02:09:21.636Z,8.10
2023-04-19T02:11:50.281Z,8.09
2023-04-19T02:14:18.885Z,8.07
2023-04-19T02:16:50.368Z,8.04
2023-04-19T02:19:19.169Z,8.04
2023-04-19T02:21:47.602Z,7.95
2023-04-19T02:24:16.279Z,7.93
2023-04-19T02:26:44.956Z,7.97
2023-04-19T02:29:13.605Z,7.94
2023-04-19T02:31:42.168Z,7.92
2023-04-19T02:34:12.426Z,7.92
2023-04-19T02:36:41.106Z,7.92
2023-04-19T02:39:09.952Z,7.92
2023-04-19T02:41:39.912Z,7.90
2023-04-19T02:44:08.844Z,7.85
2023-04-19T02:46:37.420Z,7.84
2023-04-19T02:49:06.396Z,7.82
2023-04-19T02:51:37.730Z,7.77
2023-04-19T02:54:08.260Z,7.77
2023-04-19T02:56:37.857Z,7.75
2023-04-19T02:59:07.076Z,7.72
2023-04-19T03:01:35.530Z,7.72
2023-04-19T03:04:04.158Z,7.69
2023-04-19T03:06:33.008Z,7.69
2023-04-19T03:09:03.080Z,7.67
2023-04-19T03:11:31.723Z,7.64
2023-04-19T03:14:00.907Z,7.65
2023-04-19T03:16:31.059Z,7.62
2023-04-19T03:18:59.512Z,7.60
2023-04-19T03:21:29.290Z,7.60
2023-04-19T03:23:58.116Z,7.56
2023-04-19T03:26:28.164Z,7.56
2023-04-19T03:29:02.836Z,7.57
2023-04-19T03:31:31.319Z,7.55
2023-04-19T03:33:59.853Z,7.55
2023-04-19T03:36:28.402Z,7.52
2023-04-19T03:38:56.758Z,7.53
2023-04-19T03:41:28.065Z,7.51
2023-04-19T03:43:57.854Z,7.52
2023-04-19T03:46:26.370Z,7.54
2023-04-19T03:48:55.415Z,7.57
2023-04-19T03:51:23.844Z,7.56
2023-04-19T03:53:52.279Z,7.53
2023-04-19T03:56:21.960Z,7.53
2023-04-19T03:58:54.308Z,7.52
2023-04-19T04:01:24.786Z,7.50
2023-04-19T04:03:53.836Z,7.49
2023-04-19T04:06:22.432Z,7.52
2023-04-19T04:08:50.688Z,7.51
2023-04-19T04:11:19.327Z,7.51
2023-04-19T04:13:49.148Z,7.55
2023-04-19T04:16:19.157Z,7.59
2023-04-19T04:18:47.660Z,7.56
2023-04-19T04:21:16.020Z,7.60
2023-04-19T04:23:44.351Z,7.62
2023-04-19T04:26:14.381Z,7.67
2023-04-19T04:28:43.033Z,7.74
2023-04-19T04:31:13.109Z,7.77
2023-04-19T04:33:43.201Z,7.76
2023-04-19T04:36:12.352Z,7.85
2023-04-19T04:38:41.997Z,7.87
2023-04-19T04:41:10.901Z,7.88
2023-04-19T04:43:40.208Z,7.90
2023-04-19T04:46:10.400Z,7.90
2023-04-19T04:48:39.039Z,7.83
2023-04-19T04:51:09.213Z,7.88
2023-04-19T04:53:38.917Z,7.83
2023-04-19T04:56:09.247Z,7.83
2023-04-19T04:58:37.968Z,7.83
2023-04-19T05:01:08.168Z,7.83
2023-04-19T05:03:36.867Z,7.80
2023-04-19T05:06:05.735Z,7.79
2023-04-19T05:08:35.835Z,7.77
2023-04-19T05:11:05.355Z,7.79
2023-04-19T05:13:34.116Z,7.71
2023-04-19T05:16:02.909Z,7.73
2023-04-19T05:18:32.045Z,7.82
2023-04-19T05:21:03.138Z,7.88
2023-04-19T05:23:31.819Z,7.92
2023-04-19T05:26:01.645Z,7.92
2023-04-19T05:28:30.072Z,7.90
2023-04-19T05:30:58.677Z,7.90
2023-04-19T05:33:27.621Z,7.95
2023-04-19T05:35:58.805Z,7.88
2023-04-19T05:38:27.422Z,7.94
2023-04-19T05:40:56.027Z,7.94
2023-04-19T05:43:26.052Z,7.94
2023-04-19T05:45:54.654Z,7.96
2023-04-19T05:48:25.943Z,7.96
2023-04-19T05:50:56.597Z,7.95
2023-04-19T05:53:25.846Z,8.01
2023-04-19T05:55:54.178Z,7.90
2023-04-19T05:58:23.641Z,7.90
2023-04-19T06:00:54.675Z,7.92
2023-04-19T06:03:23.308Z,7.96
2023-04-19T06:05:52.015Z,7.97
2023-04-19T06:08:20.522Z,7.99
2023-04-19T06:10:54.443Z,8.08
2023-04-19T06:13:25.213Z,8.09
2023-04-19T06:15:55.334Z,8.16
2023-04-19T06:18:23.645Z,8.07
2023-04-19T06:20:52.514Z,8.02
2023-04-19T06:23:21.045Z,8.03
2023-04-19T06:25:49.998Z,8.10
2023-04-19T06:28:18.343Z,8.08
2023-04-19T06:30:47.128Z,8.08
2023-04-19T06:33:17.280Z,8.06
2023-04-19T06:35:45.699Z,8.10
2023-04-19T06:38:13.991Z,8.11
2023-04-19T06:40:42.556Z,8.10
2023-04-19T06:43:10.909Z,8.13
2023-04-19T06:45:39.322Z,8.18
2023-04-19T06:48:08.949Z,8.12
2023-04-19T06:50:39.041Z,8.15
2023-04-19T06:53:07.528Z,8.20
2023-04-19T06:55:36.396Z,8.18
2023-04-19T06:58:07.979Z,8.29
2023-04-19T07:00:36.481Z,8.32
2023-04-19T07:03:05.208Z,8.30
2023-04-19T07:05:34.293Z,8.32
2023-04-19T07:08:04.790Z,8.40
2023-04-19T07:10:33.534Z,8.30
2023-04-19T07:13:01.856Z,8.30
2023-04-19T07:15:30.514Z,8.36
2023-04-19T07:17:59.323Z,8.45
2023-04-19T07:20:27.983Z,8.36
2023-04-19T07:22:56.441Z,8.35
2023-04-19T07:25:26.825Z,8.40
2023-04-19T07:27:55.650Z,8.43
2023-04-19T07:30:24.975Z,8.40
2023-04-19T07:32:53.840Z,8.35
2023-04-19T07:35:22.480Z,8.40
2023-04-19T07:37:51.372Z,8.48
2023-04-19T07:40:20.430Z,8.54
2023-04-19T07:42:50.664Z,8.65
2023-04-19T07:45:19.338Z,8.73
2023-04-19T07:47:47.883Z,8.72
2023-04-19T07:50:17.076Z,8.68
2023-04-19T07:52:45.667Z,8.67
2023-04-19T07:55:14.276Z,8.65
2023-04-19T07:57:46.868Z,8.75
2023-04-19T08:00:18.362Z,8.86
2023-04-19T08:02:47.017Z,8.74
2023-04-19T08:05:17.692Z,8.74
2023-04-19T08:07:47.040Z,8.73
2023-04-19T08:10:17.091Z,8.77
2023-04-19T08:12:57.294Z,8.83
2023-04-19T08:18:06.288Z,8.94
2023-04-19T08:20:35.570Z,9.08
2023-04-19T08:23:18.162Z,8.99
2023-04-19T08:25:51.447Z,8.98
2023-04-19T08:28:20.397Z,8.91
2023-04-19T08:30:50.574Z,9.13
2023-04-19T08:33:19.394Z,9.13
2023-04-19T08:35:47.639Z,9.21
2023-04-19T08:38:16.277Z,9.11
2023-04-19T08:40:48.452Z,9.03
2023-04-19T08:43:19.257Z,8.90
2023-04-19T08:45:50.738Z,9.09
2023-04-19T08:48:19.972Z,9.16
2023-04-19T08:51:04.067Z,9.07
2023-04-19T08:53:35.941Z,9.07
2023-04-19T08:56:17.473Z,9.06
2023-04-19T08:59:03.809Z,9.09
2023-04-19T09:01:40.451Z,9.13
2023-04-19T09:04:34.982Z,9.12
2023-04-19T09:06:58.624Z,9.16
2023-04-19T09:09:37.050Z,9.25
2023-04-19T09:12:19.440Z,9.27
2023-04-19T09:17:21.651Z,9.20
2023-04-19T09:19:51.819Z,9.15
2023-04-19T09:22:20.794Z,9.22
2023-04-19T09:27:31.886Z,9.39
2023-04-19T09:30:02.441Z,9.52
2023-04-19T09:32:48.637Z,9.51
2023-04-19T09:35:17.687Z,9.39
2023-04-19T09:40:31.636Z,9.34
2023-04-19T09:43:14.953Z,9.56
2023-04-19T09:45:49.614Z,9.63
2023-04-19T09:48:20.036Z,9.63
2023-04-19T09:51:01.911Z,9.36
2023-04-19T09:53:35.514Z,9.42
2023-04-19T09:56:06.554Z,9.49
2023-04-19T09:58:49.937Z,9.60
2023-04-19T10:01:23.222Z,9.63
2023-04-19T10:03:55.899Z,9.60
2023-04-19T10:08:57.173Z,9.95
2023-04-19T10:11:30.695Z,9.70
2023-04-19T10:14:03.345Z,9.45
2023-04-19T10:16:33.845Z,9.63
2023-04-19T10:19:07.186Z,9.52
2023-04-19T10:21:38.471Z,9.53
2023-04-19T10:24:08.790Z,9.59
2023-04-19T10:27:11.531Z,9.71
2023-04-19T10:29:59.720Z,9.68
2023-04-19T10:32:32.417Z,9.62
2023-04-19T10:35:10.146Z,9.69
2023-04-19T10:37:42.848Z,9.56
2023-04-19T10:40:13.615Z,9.63
2023-04-19T10:43:16.586Z,9.62
2023-04-19T10:45:44.981Z,9.76
2023-04-19T10:48:39.635Z,9.60
2023-04-19T10:51:16.164Z,9.63
2023-04-19T10:53:49.397Z,9.75
2023-04-19T10:56:19.222Z,9.93
2023-04-19T10:59:24.373Z,9.92
2023-04-19T11:01:55.830Z,9.81
2023-04-19T11:04:46.837Z,9.72
2023-04-19T11:07:18.662Z,9.73
2023-04-19T11:09:48.559Z,9.75
2023-04-19T11:12:18.746Z,9.81
2023-04-19T11:14:49.299Z,9.80
2023-04-19T11:17:19.639Z,9.74
2023-04-19T11:19:56.498Z,9.66
2023-04-19T11:22:32.827Z,9.75
2023-04-19T11:25:08.259Z,9.73
2023-04-19T11:27:37.600Z,9.80
2023-04-19T11:30:08.069Z,9.87
2023-04-19T11:32:37.342Z,10.12
2023-04-19T11:35:07.998Z,10.02
2023-04-19T11:37:39.289Z,10.09
2023-04-19T11:40:10.053Z,10.18
2023-04-19T11:42:39.244Z,10.13
2023-04-19T11:45:18.719Z,10.15
2023-04-19T11:47:55.216Z,10.14
2023-04-19T11:50:35.124Z,10.10
2023-04-19T11:53:14.735Z,10.14
2023-04-19T11:55:48.310Z,10.10
2023-04-19T11:58:32.198Z,10.12
2023-04-19T12:01:07.793Z,10.15
2023-04-19T12:03:37.396Z,10.14
2023-04-19T12:06:09.484Z,10.22
2023-04-19T12:08:40.859Z,10.17
2023-04-19T12:11:09.970Z,10.20
2023-04-19T12:13:40.832Z,10.10
2023-04-19T12:16:10.252Z,10.13
2023-04-19T12:18:50.520Z,10.03
2023-04-19T12:21:29.510Z,10.12
2023-04-19T12:24:01.470Z,10.23
2023-04-19T12:26:31.623Z,10.31
2023-04-19T12:29:02.771Z,10.32
2023-04-19T12:31:33.752Z,10.67
2023-04-19T12:34:02.206Z,10.75
2023-04-19T12:36:30.807Z,10.59
2023-04-19T12:39:00.917Z,10.86
2023-04-19T12:41:29.576Z,11.27
2023-04-19T12:43:57.986Z,10.99
2023-04-19T12:46:27.141Z,10.89
2023-04-19T12:48:55.965Z,10.84
2023-04-19T12:51:24.536Z,10.99
2023-04-19T12:53:54.391Z,10.96
2023-04-19T12:56:24.731Z,11.08
2023-04-19T12:58:53.046Z,11.22
2023-04-19T13:01:22.210Z,11.19
2023-04-19T13:03:51.223Z,10.94
2023-04-19T13:06:19.787Z,11.00
2023-04-19T13:08:48.372Z,11.00
2023-04-19T13:11:23.497Z,10.84
2023-04-19T13:13:54.220Z,10.89
2023-04-19T13:16:23.346Z,11.04
2023-04-19T13:18:52.947Z,11.18
2023-04-19T13:21:21.268Z,11.28
2023-04-19T13:23:49.776Z,11.70
2023-04-19T13:26:18.483Z,12.05
2023-04-19T13:28:46.833Z,12.28
2023-04-19T13:31:17.414Z,12.24
2023-04-19T13:33:46.531Z,12.24
2023-04-19T13:36:15.143Z,12.19
2023-04-19T13:38:43.928Z,12.18
2023-04-19T13:41:12.361Z,11.92
2023-04-19T13:43:41.122Z,11.47
2023-04-19T13:46:09.730Z,11.53
2023-04-19T13:48:39.950Z,11.42
2023-04-19T13:51:09.353Z,11.31
2023-04-19T13:53:37.734Z,11.70
2023-04-19T13:56:09.631Z,11.79
2023-04-19T13:58:38.480Z,12.02
2023-04-19T14:01:07.045Z,11.97
2023-04-19T14:03:35.736Z,12.01
2023-04-19T14:06:06.771Z,11.91
2023-04-19T14:08:35.352Z,12.06
2023-04-19T14:11:03.703Z,12.04
2023-04-19T14:13:32.431Z,12.28
2023-04-19T14:16:01.198Z,12.06
2023-04-19T14:18:29.569Z,12.08
2023-04-19T14:20:58.188Z,12.08
2023-04-19T14:23:28.727Z,12.15
2023-04-19T14:25:57.291Z,12.06
2023-04-19T14:28:26.008Z,11.74
2023-04-19T14:30:54.844Z,11.79
2023-04-19T14:33:23.459Z,11.86
2023-04-19T14:35:51.794Z,11.74
2023-04-19T14:38:20.321Z,11.58
2023-04-19T14:40:50.149Z,11.74
2023-04-19T14:43:18.760Z,11.69
2023-04-19T14:45:50.205Z,11.74
2023-04-19T14:48:21.397Z,11.91
2023-04-19T14:50:51.846Z,11.93
2023-04-19T14:53:20.364Z,12.24
2023-04-19T14:55:50.961Z,12.11
2023-04-19T14:58:19.480Z,12.09
2023-04-19T15:00:48.126Z,12.33
2023-04-19T15:03:17.800Z,12.09
2023-04-19T15:05:46.451Z,12.06
2023-04-19T15:08:29.144Z,12.15
2023-04-19T15:11:00.382Z,11.96
2023-04-19T15:13:30.060Z,11.95
2023-04-19T15:16:00.548Z,11.88
2023-04-19T15:18:30.578Z,11.99
2023-04-19T15:20:58.916Z,12.17
2023-04-19T15:23:27.571Z,12.04
2023-04-19T15:25:56.674Z,12.22
2023-04-19T15:28:27.087Z,12.21
2023-04-19T15:31:00.481Z,12.38
2023-04-19T15:33:29.803Z,12.13
2023-04-19T15:35:59.279Z,12.03
2023-04-19T15:38:29.804Z,12.00
2023-04-19T15:41:00.193Z,11.82
2023-04-19T15:43:30.152Z,11.97
2023-04-19T15:45:58.583Z,11.71
2023-04-19T15:48:27.540Z,11.59
2023-04-19T15:50:56.206Z,11.62
2023-04-19T15:53:24.980Z,11.56
2023-04-19T15:55:55.796Z,11.47
2023-04-19T15:58:25.288Z,11.63
2023-04-19T16:00:55.230Z,11.66
2023-04-19T16:03:24.107Z,11.87
2023-04-19T16:05:52.974Z,12.00
2023-04-19T16:08:21.526Z,12.39
2023-04-19T16:10:51.067Z,12.42
2023-04-19T16:13:19.621Z,12.56
2023-04-19T16:15:48.389Z,12.51
2023-04-19T16:18:18.432Z,12.55
2023-04-19T16:20:47.056Z,12.62
2023-04-19T16:23:15.935Z,12.35
2023-04-19T16:25:44.257Z,12.36
2023-04-19T16:28:12.922Z,12.57
2023-04-19T16:30:41.418Z,12.73
2023-04-19T16:33:10.162Z,12.57
2023-04-19T16:35:40.449Z,12.63
2023-04-19T16:38:09.071Z,12.48
2023-04-19T16:40:37.842Z,12.46
2023-04-19T16:43:06.772Z,12.40
2023-04-19T16:45:35.657Z,12.24
2023-04-19T16:48:04.366Z,12.08
2023-04-19T16:50:33.314Z,11.98
2023-04-19T16:53:03.290Z,11.82
2023-04-19T16:55:31.593Z,11.86
2023-04-19T16:58:02.314Z,11.80
2023-04-19T17:00:30.946Z,11.79
2023-04-19T17:02:59.468Z,11.73
2023-04-19T17:05:28.146Z,11.79
2023-04-19T17:07:56.961Z,11.73
2023-04-19T17:10:28.231Z,11.63
2023-04-19T17:12:56.842Z,11.62
2023-04-19T17:15:26.535Z,11.73
2023-04-19T17:17:54.961Z,11.78
2023-04-19T17:20:23.600Z,11.67
2023-04-19T17:22:53.160Z,11.68
2023-04-19T17:25:22.406Z,11.67
2023-04-19T17:27:52.968Z,11.77
2023-04-19T17:30:21.358Z,11.82
2023-04-19T17:32:50.051Z,11.79
2023-04-19T17:35:18.569Z,11.77
2023-04-19T17:37:50.856Z,11.72
2023-04-19T17:40:20.815Z,11.65
2023-04-19T17:42:49.686Z,11.65
2023-04-19T17:45:19.697Z,11.59
2023-04-19T17:47:49.564Z,11.67
2023-04-19T17:50:19.192Z,11.62
2023-04-19T17:52:48.916Z,11.72
2023-04-19T17:55:17.528Z,11.80
2023-04-19T17:57:47.537Z,12.57
2023-04-19T18:00:17.095Z,13.50
2023-04-19T18:02:47.175Z,14.17
2023-04-19T18:05:16.587Z,14.29
2023-04-19T18:07:45.232Z,14.68
2023-04-19T18:10:13.729Z,14.87
2023-04-19T18:12:42.941Z,14.67
2023-04-19T18:15:12.651Z,14.37
2023-04-19T18:17:41.343Z,14.74
2023-04-19T18:20:13.766Z,13.48
2023-04-19T18:22:42.553Z,12.67
2023-04-19T18:25:11.682Z,12.22
2023-04-19T18:27:40.662Z,12.06
2023-04-19T18:30:10.239Z,11.95
2023-04-19T18:32:38.979Z,11.91
2023-04-19T18:35:12.059Z,12.03
2023-04-19T18:37:42.325Z,11.78
2023-04-19T18:40:12.520Z,11.63
2023-04-19T18:42:41.382Z,11.56
2023-04-19T18:45:11.588Z,11.48
2023-04-19T18:47:40.049Z,11.57
2023-04-19T18:50:12.117Z,11.53
2023-04-19T18:52:40.799Z,11.51
2023-04-19T18:55:11.906Z,11.54
2023-04-19T18:57:41.548Z,11.47
2023-04-19T19:00:11.392Z,11.43
2023-04-19T19:02:43.828Z,11.41
2023-04-19T19:05:16.382Z,11.38
2023-04-19T19:07:46.927Z,11.34
2023-04-19T19:10:21.006Z,11.37
2023-04-19T19:12:50.995Z,11.37
2023-04-19T19:15:19.607Z,11.39
2023-04-19T19:17:50.478Z,11.42
2023-04-19T19:20:21.503Z,11.45
2023-04-19T19:22:53.080Z,11.39
2023-04-19T19:25:21.933Z,11.28
2023-04-19T19:30:29.632Z,11.25
2023-04-19T19:32:58.117Z,11.17
2023-04-19T19:35:28.216Z,11.20
2023-04-19T19:37:56.932Z,11.19
2023-04-19T19:40:25.625Z,11.19
2023-04-19T19:42:56.279Z,11.13
2023-04-19T19:45:28.683Z,11.14
2023-04-19T19:48:00.030Z,11.09
2023-04-19T19:53:02.503Z,11.08
2023-04-19T19:55:31.501Z,11.03
2023-04-19T20:00:44.756Z,10.98
2023-04-19T20:03:14.091Z,10.97
2023-04-19T20:05:44.458Z,10.96
2023-04-19T20:08:15.281Z,10.97
2023-04-19T20:10:46.819Z,10.93
2023-04-19T20:13:15.310Z,10.94
2023-04-19T20:15:45.892Z,10.91
2023-04-19T20:18:14.767Z,10.93
2023-04-19T20:20:52.008Z,10.84
2023-04-19T20:23:22.421Z,10.85
2023-04-19T20:25:51.973Z,10.81
2023-04-19T20:28:21.071Z,10.83
2023-04-19T20:30:49.712Z,10.81
2023-04-19T20:33:18.369Z,10.81
2023-04-19T20:35:46.662Z,10.78
2023-04-19T20:38:16.586Z,10.78
2023-04-19T20:40:45.116Z,10.77
2023-04-19T20:43:16.222Z,10.77
2023-04-19T20:45:44.972Z,10.74
2023-04-19T20:48:20.747Z,10.72
2023-04-19T20:50:50.618Z,10.71
2023-04-19T20:53:21.318Z,10.74
2023-04-19T20:55:49.878Z,10.69
2023-04-19T20:58:18.492Z,10.73
2023-04-19T21:00:47.089Z,10.66
2023-04-19T21:03:16.309Z,10.66
2023-04-19T21:05:44.946Z,10.67
2023-04-19T21:08:15.496Z,10.68
2023-04-19T21:10:46.679Z,10.67
2023-04-19T21:13:15.274Z,10.67
2023-04-19T21:15:44.102Z,10.66
2023-04-19T21:18:12.544Z,10.60
2023-04-19T21:20:41.133Z,10.59
2023-04-19T21:23:10.658Z,10.60
2023-04-19T21:25:39.212Z,10.55
2023-04-19T21:28:11.808Z,10.55
2023-04-19T21:30:43.675Z,10.46
2023-04-19T21:33:12.533Z,10.41
2023-04-19T21:35:41.106Z,10.40
2023-04-19T21:38:09.626Z,10.38
2023-04-19T21:40:39.310Z,10.38
2023-04-19T21:43:09.640Z,10.35
2023-04-19T21:45:38.267Z,10.34
2023-04-19T21:48:07.590Z,10.35
2023-04-19T21:50:36.239Z,10.31
2023-04-19T21:53:04.779Z,10.35
2023-04-19T21:55:34.682Z,10.31
2023-04-19T21:58:04.153Z,10.28
2023-04-19T22:00:33.995Z,10.28
2023-04-19T22:03:02.672Z,10.19
2023-04-19T22:05:31.240Z,10.17
2023-04-19T22:08:01.418Z,10.19
2023-04-19T22:10:31.817Z,10.13
2023-04-19T22:13:00.578Z,10.10
2023-04-19T22:15:28.878Z,10.03
2023-04-19T22:17:59.141Z,10.02
2023-04-19T22:20:28.171Z,9.98
2023-04-19T22:22:56.930Z,9.94
2023-04-19T22:25:25.727Z,9.94
2023-04-19T22:27:54.354Z,9.94
2023-04-19T22:30:22.981Z,9.93
2023-04-19T22:32:52.409Z,9.94
2023-04-19T22:35:23.014Z,9.89
2023-04-19T22:37:51.595Z,9.85
2023-04-19T22:40:20.273Z,9.88
2023-04-19T22:42:48.799Z,9.93
2023-04-19T22:45:17.517Z,9.85
2023-04-19T22:47:46.217Z,9.83
2023-04-19T22:50:15.850Z,9.89
2023-04-19T22:52:46.033Z,9.81
2023-04-19T22:55:14.307Z,9.74
2023-04-19T22:57:43.517Z,9.75
2023-04-19T23:00:12.690Z,9.67
2023-04-19T23:02:41.391Z,9.56
2023-04-19T23:05:11.672Z,9.50
2023-04-19T23:07:43.473Z,9.49
2023-04-19T23:10:15.184Z,9.43
2023-04-19T23:12:43.434Z,9.37
2023-04-19T23:15:14.018Z,9.42
2023-04-19T23:17:42.624Z,9.38
2023-04-19T23:20:12.498Z,9.37
2023-04-19T23:22:41.244Z,9.40
2023-04-19T23:25:11.095Z,9.32
2023-04-19T23:27:41.172Z,9.28
2023-04-19T23:30:10.614Z,9.26
2023-04-19T23:32:39.179Z,9.19
2023-04-19T23:35:08.354Z,9.20
2023-04-19T23:37:37.035Z,9.20
2023-04-19T23:40:08.548Z,9.13
2023-04-19T23:42:37.996Z,9.12
2023-04-19T23:45:09.404Z,9.14
2023-04-19T23:47:37.960Z,9.14
2023-04-19T23:50:08.982Z,9.07
2023-04-19T23:52:37.378Z,9.04
2023-04-19T23:55:07.170Z,9.04
2023-04-19T23:57:37.162Z,9.04
